createdAt,value
2022-10-11T00:02:53.265Z,16.73
2022-10-11T00:05:55.618Z,17.02
2022-10-11T00:08:57.822Z,17.60
2022-10-11T00:12:00.050Z,19.42
2022-10-11T00:15:03.066Z,20.23
2022-10-11T00:18:05.560Z,15.37
2022-10-11T00:21:10.351Z,16.80
2022-10-11T00:24:13.950Z,15.52
2022-10-11T00:27:31.170Z,14.23
2022-10-11T00:30:43.897Z,11.52
2022-10-11T00:33:46.512Z,11.85
2022-10-11T00:37:04.952Z,12.30
2022-10-11T00:40:19.861Z,16.75
2022-10-11T00:43:32.990Z,15.10
2022-10-11T00:47:10.989Z,18.30
2022-10-11T00:50:27.859Z,17.27
2022-10-11T00:53:40.083Z,17.50
2022-10-11T00:56:55.352Z,16.58
2022-10-11T01:00:10.984Z,16.73
2022-10-11T01:03:24.769Z,21.17
2022-10-11T01:06:42.589Z,16.05
2022-10-11T01:09:55.179Z,18.77
2022-10-11T01:13:17.704Z,23.52
2022-10-11T01:16:36.090Z,17.70
2022-10-11T01:19:49.689Z,18.33
2022-10-11T01:23:03.445Z,17.38
2022-10-11T01:26:41.266Z,15.90
2022-10-11T01:30:08.685Z,18.93
2022-10-11T01:33:33.465Z,16.40
2022-10-11T01:36:49.745Z,15.95
2022-10-11T01:40:03.954Z,20.98
2022-10-11T01:43:16.703Z,18.33
2022-10-11T01:46:30.516Z,16.07
2022-10-11T01:49:46.114Z,17.00
2022-10-11T01:53:02.901Z,15.85
2022-10-11T01:56:37.237Z,15.65
2022-10-11T01:59:53.721Z,16.67
2022-10-11T02:03:06.912Z,19.13
2022-10-11T02:06:24.904Z,17.77
2022-10-11T02:09:43.063Z,19.27
2022-10-11T02:12:57.947Z,17.00
2022-10-11T02:16:14.726Z,17.42
2022-10-11T02:19:29.924Z,20.48
2022-10-11T02:22:46.627Z,20.33
2022-10-11T02:26:00.601Z,20.17
2022-10-11T02:29:15.303Z,17.10
2022-10-11T02:32:30.293Z,15.55
2022-10-11T02:35:46.119Z,17.25
2022-10-11T02:39:00.151Z,15.25
2022-10-11T02:42:20.813Z,16.57
2022-10-11T02:45:38.473Z,16.85
2022-10-11T02:49:00.701Z,16.45
2022-10-11T02:52:14.187Z,20.17
2022-10-11T02:55:26.982Z,19.38
2022-10-11T02:58:39.804Z,18.30
2022-10-11T03:01:53.430Z,19.45
2022-10-11T03:05:13.239Z,21.02
2022-10-11T03:08:26.413Z,18.98
2022-10-11T03:11:39.953Z,16.45
2022-10-11T03:14:55.187Z,17.77
2022-10-11T03:18:08.590Z,19.03
2022-10-11T03:21:21.954Z,20.98
2022-10-11T03:24:36.020Z,17.83
2022-10-11T03:27:49.647Z,18.23
2022-10-11T03:31:02.105Z,18.88
2022-10-11T03:34:19.117Z,17.02
2022-10-11T03:37:32.417Z,18.63
2022-10-11T03:40:45.604Z,18.05
2022-10-11T03:43:59.069Z,18.63
2022-10-11T03:47:12.846Z,16.45
2022-10-11T03:50:25.669Z,17.17
2022-10-11T03:53:41.784Z,16.17
2022-10-11T03:56:54.040Z,13.43
2022-10-11T04:00:08.358Z,16.47
2022-10-11T04:03:22.899Z,18.23
2022-10-11T04:06:41.854Z,18.60
2022-10-11T04:09:54.045Z,17.30
2022-10-11T04:13:07.911Z,16.95
2022-10-11T04:16:22.922Z,18.93
2022-10-11T04:19:37.318Z,17.03
2022-10-11T04:22:55.278Z,17.40
2022-10-11T04:26:08.835Z,17.53
2022-10-11T04:29:21.331Z,20.00
2022-10-11T04:32:34.740Z,17.70
2022-10-11T04:35:47.758Z,17.75
2022-10-11T04:39:07.475Z,20.83
2022-10-11T04:42:25.401Z,18.00
2022-10-11T04:45:41.661Z,15.95
2022-10-11T04:48:58.294Z,16.73
2022-10-11T04:52:10.912Z,19.00
2022-10-11T04:55:26.684Z,16.93
2022-10-11T04:58:42.237Z,16.52
2022-10-11T05:01:56.869Z,17.42
2022-10-11T05:05:17.649Z,15.52
2022-10-11T05:08:36.991Z,16.92
2022-10-11T05:11:56.571Z,21.38
2022-10-11T05:15:33.512Z,19.02
2022-10-11T05:18:53.795Z,19.25
2022-10-11T05:22:11.123Z,22.73
2022-10-11T05:25:29.186Z,18.10
2022-10-11T05:29:05.695Z,17.40
2022-10-11T05:32:27.891Z,17.67
2022-10-11T05:35:48.328Z,17.30
2022-10-11T05:39:07.212Z,19.85
2022-10-11T05:42:37.339Z,14.75
2022-10-11T05:46:09.122Z,14.00
2022-10-11T05:49:30.129Z,15.40
2022-10-11T05:53:02.097Z,13.82
2022-10-11T05:56:21.462Z,15.20
2022-10-11T05:59:43.374Z,16.43
2022-10-11T06:03:09.689Z,20.45
2022-10-11T06:06:31.907Z,20.10
2022-10-11T06:09:46.357Z,17.23
2022-10-11T06:13:02.194Z,22.25
2022-10-11T06:16:34.924Z,20.65
2022-10-11T06:20:02.162Z,22.65
2022-10-11T06:23:31.267Z,27.33
2022-10-11T06:27:00.697Z,23.43
2022-10-11T06:30:41.670Z,18.83
2022-10-11T06:33:54.249Z,18.53
2022-10-11T06:37:26.697Z,21.23
2022-10-11T06:40:55.722Z,23.63
2022-10-11T06:44:14.437Z,20.95
2022-10-11T06:47:56.159Z,20.27
2022-10-11T06:51:12.083Z,17.38
2022-10-11T06:54:53.214Z,20.27
2022-10-11T06:58:28.946Z,20.33
2022-10-11T07:02:07.118Z,23.63
2022-10-11T07:05:34.743Z,20.60
2022-10-11T07:09:07.837Z,25.65
2022-10-11T07:12:43.472Z,24.10
2022-10-11T07:16:15.896Z,18.43
2022-10-11T07:19:55.676Z,20.25
2022-10-11T07:23:38.604Z,19.30
2022-10-11T07:27:11.388Z,19.77
2022-10-11T07:30:48.174Z,19.05
2022-10-11T07:34:46.237Z,20.08
2022-10-11T07:38:20.286Z,22.05
2022-10-11T07:52:03.054Z,23.77
2022-10-11T07:55:21.587Z,20.43
2022-10-11T07:59:05.191Z,18.87
2022-10-11T08:02:25.987Z,21.92
2022-10-11T08:05:43.555Z,19.75
2022-10-11T08:09:23.587Z,19.60
2022-10-11T08:13:05.400Z,22.58
2022-10-11T08:16:42.226Z,19.90
2022-10-11T08:20:16.544Z,19.65
2022-10-11T08:24:07.723Z,20.58
2022-10-11T08:27:46.869Z,22.03
2022-10-11T08:31:15.602Z,19.65
2022-10-11T08:34:56.269Z,18.83
2022-10-11T08:38:29.068Z,21.58
2022-10-11T08:42:11.188Z,20.13
2022-10-11T08:45:31.729Z,19.10
2022-10-11T08:48:36.555Z,23.17
2022-10-11T08:51:51.867Z,17.70
2022-10-11T08:54:56.596Z,21.77
2022-10-11T08:58:08.211Z,21.30
2022-10-11T09:01:16.021Z,20.97
2022-10-11T09:04:18.899Z,21.88
2022-10-11T09:07:26.171Z,18.15
2022-10-11T09:10:41.366Z,18.73
2022-10-11T09:13:51.925Z,20.63
2022-10-11T09:17:15.183Z,21.50
2022-10-11T09:20:18.656Z,15.48
2022-10-11T09:23:39.115Z,21.65
2022-10-11T09:26:52.978Z,20.60
2022-10-11T09:30:01.559Z,17.77
2022-10-11T09:33:21.213Z,19.53
2022-10-11T09:36:39.857Z,15.90
2022-10-11T09:39:49.238Z,16.33
2022-10-11T09:42:54.785Z,18.33
2022-10-11T09:45:58.285Z,15.27
2022-10-11T09:49:02.971Z,19.33
2022-10-11T09:52:07.227Z,15.30
2022-10-11T09:55:29.186Z,14.90
2022-10-11T09:58:32.961Z,12.85
2022-10-11T10:01:36.384Z,12.65
2022-10-11T10:04:53.816Z,14.37
2022-10-11T10:08:12.671Z,14.93
2022-10-11T10:11:15.710Z,14.15
2022-10-11T10:14:29.091Z,13.27
2022-10-11T10:17:31.973Z,15.05
2022-10-11T10:20:51.460Z,14.33
2022-10-11T10:23:56.888Z,13.38
2022-10-11T10:27:14.758Z,17.02
2022-10-11T10:30:19.562Z,13.52
2022-10-11T10:33:23.533Z,15.23
2022-10-11T10:36:33.325Z,12.77
2022-10-11T10:39:48.045Z,13.82
2022-10-11T10:42:51.555Z,17.70
2022-10-11T10:46:01.130Z,14.30
2022-10-11T10:52:46.982Z,14.37
2022-10-11T10:55:55.069Z,16.58
2022-10-11T10:59:16.421Z,13.65
2022-10-11T11:02:40.694Z,14.40
2022-10-11T11:05:56.142Z,16.00
2022-10-11T11:09:17.433Z,16.83
2022-10-11T11:12:35.578Z,12.88
2022-10-11T11:15:54.845Z,11.95
2022-10-11T11:19:40.450Z,13.00
2022-10-11T11:23:01.473Z,15.38
2022-10-11T11:26:19.506Z,13.10
2022-10-11T11:29:37.635Z,16.02
2022-10-11T11:32:53.260Z,14.10
2022-10-11T11:35:58.302Z,14.75
2022-10-11T11:39:05.662Z,13.45
2022-10-11T11:42:10.065Z,13.20
2022-10-11T11:45:19.377Z,17.17
2022-10-11T11:48:27.006Z,16.38
2022-10-11T11:51:33.910Z,13.35
2022-10-11T11:54:42.820Z,15.38
2022-10-11T11:58:07.127Z,16.87
2022-10-11T12:04:46.825Z,17.27
2022-10-11T12:08:00.642Z,14.52
2022-10-11T12:11:04.563Z,12.82
2022-10-11T12:14:22.306Z,14.73
2022-10-11T12:17:25.107Z,16.13
2022-10-11T12:20:27.661Z,15.32
2022-10-11T12:23:30.271Z,15.18
2022-10-11T12:26:34.936Z,16.58
2022-10-11T12:29:42.689Z,15.07
2022-10-11T12:32:48.364Z,15.68
2022-10-11T12:35:53.962Z,13.88
2022-10-11T12:39:35.241Z,14.48
2022-10-11T12:42:40.590Z,17.75
2022-10-11T12:45:49.195Z,12.63
2022-10-11T12:48:58.818Z,15.82
2022-10-11T12:52:20.823Z,15.43
2022-10-11T12:55:45.802Z,15.82
2022-10-11T12:58:49.397Z,15.13
2022-10-11T13:01:53.828Z,15.10
2022-10-11T13:05:08.635Z,15.52
2022-10-11T13:08:17.814Z,17.13
2022-10-11T13:11:46.508Z,14.00
2022-10-11T13:15:00.962Z,13.50
2022-10-11T13:18:03.596Z,15.73
2022-10-11T13:21:18.060Z,17.00
2022-10-11T13:24:23.307Z,13.93
2022-10-11T13:27:26.765Z,17.48
2022-10-11T13:30:34.392Z,15.40
2022-10-11T13:33:40.970Z,14.43
2022-10-11T13:36:43.675Z,16.45
2022-10-11T13:39:47.196Z,17.27
2022-10-11T13:42:50.944Z,16.38
2022-10-11T13:45:56.321Z,18.70
2022-10-11T13:48:59.586Z,20.10
2022-10-11T13:52:02.654Z,15.95
2022-10-11T13:55:05.467Z,16.67
2022-10-11T13:58:18.396Z,18.88
2022-10-11T14:01:27.291Z,13.90
2022-10-11T14:04:38.582Z,16.17
2022-10-11T14:07:41.207Z,18.77
2022-10-11T14:10:46.563Z,17.40
2022-10-11T14:13:52.592Z,18.15
2022-10-11T14:16:59.256Z,15.68
2022-10-11T14:20:34.824Z,14.77
2022-10-11T14:23:37.356Z,16.42
2022-10-11T14:26:41.473Z,16.73
2022-10-11T14:29:55.556Z,15.13
2022-10-11T14:33:07.590Z,16.55
2022-10-11T14:36:12.531Z,18.00
2022-10-11T14:39:16.502Z,17.13
2022-10-11T14:42:18.845Z,19.23
2022-10-11T14:45:24.268Z,16.30
2022-10-11T14:48:50.184Z,19.77
2022-10-11T14:51:49.441Z,16.17
2022-10-11T14:54:51.744Z,15.25
2022-10-11T14:57:54.434Z,20.23
2022-10-11T15:00:56.697Z,16.70
2022-10-11T15:03:58.949Z,20.75
2022-10-11T15:07:01.400Z,18.70
2022-10-11T15:10:04.116Z,21.27
2022-10-11T15:13:07.214Z,18.50
2022-10-11T15:16:10.923Z,22.92
2022-10-11T15:19:18.033Z,19.45
2022-10-11T15:22:20.266Z,19.50
2022-10-11T15:25:23.367Z,24.23
2022-10-11T15:28:27.504Z,21.35
2022-10-11T15:31:29.855Z,23.75
2022-10-11T15:34:32.082Z,20.98
2022-10-11T15:37:37.314Z,19.43
2022-10-11T15:40:39.821Z,20.42
2022-10-11T15:43:43.395Z,20.95
2022-10-11T15:46:46.668Z,23.23
2022-10-11T15:49:48.976Z,23.20
2022-10-11T15:52:51.833Z,23.27
2022-10-11T15:55:55.655Z,25.33
2022-10-11T15:58:58.548Z,27.70
2022-10-11T16:02:00.806Z,28.50
2022-10-11T16:05:03.144Z,33.13
2022-10-11T16:08:05.410Z,33.93
2022-10-11T16:11:07.958Z,29.63
2022-10-11T16:14:11.141Z,41.25
2022-10-11T16:17:13.311Z,45.72
2022-10-11T16:20:15.723Z,45.13
2022-10-11T16:23:19.164Z,44.93
2022-10-11T16:26:21.618Z,45.58
2022-10-11T16:29:25.666Z,43.22
2022-10-11T16:32:28.398Z,43.53
2022-10-11T16:35:32.645Z,44.55
2022-10-11T16:38:36.158Z,42.83
2022-10-11T16:41:38.659Z,43.92
2022-10-11T16:44:40.872Z,47.20
2022-10-11T16:47:44.000Z,43.40
2022-10-11T16:50:46.267Z,46.30
2022-10-11T16:53:48.546Z,42.20
2022-10-11T16:56:50.805Z,41.42
2022-10-11T16:59:53.307Z,44.38
2022-10-11T17:02:55.531Z,38.17
2022-10-11T17:05:57.785Z,43.13
2022-10-11T17:09:00.014Z,41.33
2022-10-11T17:12:02.202Z,45.30
2022-10-11T17:15:04.996Z,45.05
2022-10-11T17:18:07.223Z,48.42
2022-10-11T17:21:15.417Z,46.33
2022-10-11T17:24:17.634Z,44.17
2022-10-11T17:27:20.132Z,51.42
2022-10-11T17:30:22.911Z,42.72
2022-10-11T17:33:28.763Z,48.13
2022-10-11T17:36:34.435Z,51.13
2022-10-11T17:39:36.830Z,51.87
2022-10-11T17:42:39.105Z,46.00
2022-10-11T17:45:41.723Z,46.75
2022-10-11T17:48:45.482Z,43.35
2022-10-11T17:51:47.855Z,44.75
2022-10-11T17:54:50.364Z,44.93
2022-10-11T17:57:52.904Z,40.58
2022-10-11T18:00:55.255Z,45.25
2022-10-11T18:04:02.054Z,43.75
2022-10-11T18:07:04.289Z,46.25
2022-10-11T18:10:07.072Z,47.17
2022-10-11T18:13:14.540Z,46.42
2022-10-11T18:16:19.042Z,46.33
2022-10-11T18:19:22.075Z,43.05
2022-10-11T18:22:24.548Z,50.60
2022-10-11T18:25:26.858Z,43.77
2022-10-11T18:28:29.217Z,45.08
2022-10-11T18:31:33.721Z,48.50
2022-10-11T18:34:36.428Z,42.70
2022-10-11T18:37:38.675Z,48.53
2022-10-11T18:40:46.117Z,57.40
2022-10-11T18:43:53.618Z,62.00
2022-10-11T18:46:55.791Z,58.25
2022-10-11T18:49:58.012Z,62.10
2022-10-11T18:53:00.513Z,61.05
2022-10-11T18:56:04.270Z,56.60
2022-10-11T18:59:07.038Z,58.13
2022-10-11T19:02:10.652Z,53.92
2022-10-11T19:05:12.840Z,57.72
2022-10-11T19:08:15.041Z,59.55
2022-10-11T19:11:22.198Z,55.33
2022-10-11T19:14:26.231Z,53.53
2022-10-11T19:17:28.497Z,51.95
2022-10-11T19:20:30.750Z,55.80
2022-10-11T19:23:37.205Z,61.60
2022-10-11T19:26:40.937Z,47.57
2022-10-11T19:29:43.219Z,54.78
2022-10-11T19:32:45.880Z,60.00
2022-10-11T19:35:55.080Z,56.72
2022-10-11T19:38:57.355Z,60.65
2022-10-11T19:42:01.137Z,57.30
2022-10-11T19:45:03.574Z,53.90
2022-10-11T19:48:05.784Z,59.08
2022-10-11T19:51:10.002Z,55.42
2022-10-11T19:54:13.241Z,53.90
2022-10-11T19:57:15.562Z,52.47
2022-10-11T20:00:17.981Z,60.35
2022-10-11T20:03:20.251Z,59.70
2022-10-11T20:06:23.309Z,53.40
2022-10-11T20:09:30.361Z,60.38
2022-10-11T20:12:33.737Z,61.10
2022-10-11T20:15:39.335Z,62.10
2022-10-11T20:18:42.186Z,71.47
2022-10-11T20:21:45.519Z,70.65
2022-10-11T20:24:47.768Z,81.57
2022-10-11T20:27:49.980Z,94.20
2022-10-11T20:30:52.177Z,86.95
2022-10-11T20:33:55.964Z,92.60
2022-10-11T20:36:58.159Z,82.75
2022-10-11T20:40:00.393Z,87.43
2022-10-11T20:43:02.567Z,80.27
2022-10-11T20:46:05.883Z,71.15
2022-10-11T20:49:09.585Z,71.65
2022-10-11T20:52:11.915Z,71.38
2022-10-11T20:55:14.257Z,64.20
2022-10-11T20:58:17.144Z,56.83
2022-10-11T21:01:29.526Z,56.20
2022-10-11T21:04:31.773Z,52.47
2022-10-11T21:07:34.337Z,57.60
2022-10-11T21:10:37.014Z,56.50
2022-10-11T21:13:39.309Z,52.30
2022-10-11T21:16:42.050Z,49.40
2022-10-11T21:19:44.271Z,51.10
2022-10-11T21:22:46.508Z,48.95
2022-10-11T21:25:48.649Z,53.90
2022-10-11T21:28:51.457Z,50.63
2022-10-11T21:31:53.962Z,46.28
2022-10-11T21:34:56.174Z,51.70
2022-10-11T21:37:59.101Z,52.30
2022-10-11T21:41:05.184Z,46.58
2022-10-11T21:44:07.441Z,51.17
2022-10-11T21:47:10.380Z,53.38
2022-10-11T21:50:12.562Z,51.47
2022-10-11T21:53:14.707Z,48.83
2022-10-11T21:56:17.085Z,53.80
2022-10-11T21:59:19.514Z,48.83
2022-10-11T22:02:21.778Z,54.70
2022-10-11T22:05:24.314Z,56.45
2022-10-11T22:08:26.746Z,54.28
2022-10-11T22:11:28.936Z,48.92
2022-10-11T22:14:31.168Z,54.43
2022-10-11T22:17:33.443Z,47.92
2022-10-11T22:20:35.694Z,52.10
2022-10-11T22:23:38.157Z,47.72
2022-10-11T22:26:40.784Z,46.05
2022-10-11T22:29:43.108Z,54.77
2022-10-11T22:32:45.736Z,56.10
2022-10-11T22:35:48.129Z,49.33
2022-10-11T22:38:51.580Z,44.85
2022-10-11T22:41:54.558Z,50.15
2022-10-11T22:44:56.739Z,45.30
2022-10-11T22:47:58.901Z,44.15
2022-10-11T22:51:01.146Z,43.67
2022-10-11T22:54:03.421Z,44.08
2022-10-11T22:57:05.602Z,53.50
2022-10-11T23:00:08.104Z,51.80
2022-10-11T23:03:14.206Z,52.33
2022-10-11T23:06:18.057Z,47.50
2022-10-11T23:09:20.278Z,46.45
2022-10-11T23:12:22.450Z,48.97
2022-10-11T23:15:24.696Z,51.30
2022-10-11T23:18:26.958Z,54.08
2022-10-11T23:21:29.422Z,52.85
2022-10-11T23:24:31.679Z,58.70
2022-10-11T23:27:33.929Z,49.15
2022-10-11T23:30:39.070Z,50.80
2022-10-11T23:33:41.297Z,52.95
2022-10-11T23:36:43.474Z,47.70
2022-10-11T23:39:45.698Z,47.72
2022-10-11T23:42:47.974Z,50.47
2022-10-11T23:45:50.426Z,48.00
2022-10-11T23:48:52.630Z,54.97
2022-10-11T23:51:54.835Z,55.60
2022-10-11T23:54:57.062Z,52.03
2022-10-11T23:57:59.302Z,66.72
